sensor_id;sensor_type;location;lat;lon;timestamp;pressure;altitude;pressure_sealevel;temperature;humidity
77013;BME280;67260;53.130;17.982;2024-02-15T00:00:20;101487.35;;;5.29;92.32
77013;BME280;67260;53.130;17.982;2024-02-15T00:03:07;101484.14;;;5.31;92.47
77013;BME280;67260;53.130;17.982;2024-02-15T00:05:34;101484.55;;;5.32;92.78
77013;BME280;67260;53.130;17.982;2024-02-15T00:08:32;101486.63;;;5.35;92.94
77013;BME280;67260;53.130;17.982;2024-02-15T00:11:15;101486.17;;;5.35;93.00
77013;BME280;67260;53.130;17.982;2024-02-15T00:16:28;101483.13;;;5.38;93.28
77013;BME280;67260;53.130;17.982;2024-02-15T00:18:55;101480.88;;;5.39;93.13
77013;BME280;67260;53.130;17.982;2024-02-15T00:21:22;101477.61;;;5.40;92.92
77013;BME280;67260;53.130;17.982;2024-02-15T00:23:52;101479.90;;;5.42;93.00
77013;BME280;67260;53.130;17.982;2024-02-15T00:26:22;101476.20;;;5.42;93.00
77013;BME280;67260;53.130;17.982;2024-02-15T00:28:49;101478.23;;;5.43;93.04
77013;BME280;67260;53.130;17.982;2024-02-15T00:31:18;101475.44;;;5.44;92.84
77013;BME280;67260;53.130;17.982;2024-02-15T00:33:45;101477.05;;;5.46;93.15
77013;BME280;67260;53.130;17.982;2024-02-15T00:36:19;101476.05;;;5.47;93.17
77013;BME280;67260;53.130;17.982;2024-02-15T00:38:47;101475.04;;;5.48;93.12
77013;BME280;67260;53.130;17.982;2024-02-15T00:41:14;101474.81;;;5.49;93.02
77013;BME280;67260;53.130;17.982;2024-02-15T00:44:04;101478.38;;;5.50;93.01
77013;BME280;67260;53.130;17.982;2024-02-15T00:46:33;101476.92;;;5.50;93.25
77013;BME280;67260;53.130;17.982;2024-02-15T00:49:05;101478.91;;;5.52;93.03
77013;BME280;67260;53.130;17.982;2024-02-15T00:51:56;101482.52;;;5.53;93.29
77013;BME280;67260;53.130;17.982;2024-02-15T00:54:25;101479.23;;;5.54;93.32
77013;BME280;67260;53.130;17.982;2024-02-15T00:56:51;101475.70;;;5.54;93.49
77013;BME280;67260;53.130;17.982;2024-02-15T00:59:18;101475.15;;;5.56;93.52
77013;BME280;67260;53.130;17.982;2024-02-15T01:01:45;101476.61;;;5.57;93.46
77013;BME280;67260;53.130;17.982;2024-02-15T01:04:15;101477.18;;;5.58;93.50
77013;BME280;67260;53.130;17.982;2024-02-15T01:06:41;101473.56;;;5.59;93.78
77013;BME280;67260;53.130;17.982;2024-02-15T01:09:08;101476.11;;;5.60;93.54
77013;BME280;67260;53.130;17.982;2024-02-15T01:11:36;101472.27;;;5.62;93.57
77013;BME280;67260;53.130;17.982;2024-02-15T01:14:03;101470.28;;;5.62;93.75
77013;BME280;67260;53.130;17.982;2024-02-15T01:16:30;101471.70;;;5.64;93.50
77013;BME280;67260;53.130;17.982;2024-02-15T01:18:57;101469.11;;;5.65;93.72
77013;BME280;67260;53.130;17.982;2024-02-15T01:21:24;101468.98;;;5.67;93.72
77013;BME280;67260;53.130;17.982;2024-02-15T01:23:50;101467.38;;;5.66;93.65
77013;BME280;67260;53.130;17.982;2024-02-15T01:26:20;101464.34;;;5.67;93.78
77013;BME280;67260;53.130;17.982;2024-02-15T01:28:46;101468.20;;;5.69;93.82
77013;BME280;67260;53.130;17.982;2024-02-15T01:31:14;101466.60;;;5.71;93.61
77013;BME280;67260;53.130;17.982;2024-02-15T01:33:44;101468.03;;;5.72;93.68
77013;BME280;67260;53.130;17.982;2024-02-15T01:36:15;101468.80;;;5.75;93.75
77013;BME280;67260;53.130;17.982;2024-02-15T01:38:42;101468.82;;;5.76;93.71
77013;BME280;67260;53.130;17.982;2024-02-15T01:41:09;101464.30;;;5.78;93.76
77013;BME280;67260;53.130;17.982;2024-02-15T01:43:36;101466.58;;;5.79;93.96
77013;BME280;67260;53.130;17.982;2024-02-15T01:46:10;101459.91;;;5.81;93.93
77013;BME280;67260;53.130;17.982;2024-02-15T01:48:39;101457.02;;;5.82;94.24
77013;BME280;67260;53.130;17.982;2024-02-15T01:51:10;101457.45;;;5.83;93.98
77013;BME280;67260;53.130;17.982;2024-02-15T01:53:38;101456.13;;;5.83;93.93
77013;BME280;67260;53.130;17.982;2024-02-15T01:56:07;101456.14;;;5.85;93.89
77013;BME280;67260;53.130;17.982;2024-02-15T01:58:34;101457.00;;;5.87;94.06
77013;BME280;67260;53.130;17.982;2024-02-15T02:01:02;101452.86;;;5.88;94.21
77013;BME280;67260;53.130;17.982;2024-02-15T02:03:30;101454.80;;;5.90;94.04
77013;BME280;67260;53.130;17.982;2024-02-15T02:05:57;101452.60;;;5.91;94.14
77013;BME280;67260;53.130;17.982;2024-02-15T02:08:24;101455.44;;;5.93;93.99
77013;BME280;67260;53.130;17.982;2024-02-15T02:10:52;101452.21;;;5.93;93.81
77013;BME280;67260;53.130;17.982;2024-02-15T02:13:19;101454.50;;;5.95;94.03
77013;BME280;67260;53.130;17.982;2024-02-15T02:15:45;101448.44;;;5.95;94.05
77013;BME280;67260;53.130;17.982;2024-02-15T02:18:12;101449.46;;;5.96;94.13
77013;BME280;67260;53.130;17.982;2024-02-15T02:20:39;101446.56;;;5.97;94.35
77013;BME280;67260;53.130;17.982;2024-02-15T02:23:16;101447.46;;;5.98;94.26
77013;BME280;67260;53.130;17.982;2024-02-15T02:25:45;101448.39;;;5.99;94.33
77013;BME280;67260;53.130;17.982;2024-02-15T02:28:15;101446.31;;;6.01;94.32
77013;BME280;67260;53.130;17.982;2024-02-15T02:30:44;101445.98;;;6.02;94.48
77013;BME280;67260;53.130;17.982;2024-02-15T02:33:12;101441.64;;;6.03;94.34
77013;BME280;67260;53.130;17.982;2024-02-15T02:35:45;101440.80;;;6.05;94.40
77013;BME280;67260;53.130;17.982;2024-02-15T02:38:13;101442.02;;;6.06;94.21
77013;BME280;67260;53.130;17.982;2024-02-15T02:40:40;101442.67;;;6.07;94.44
77013;BME280;67260;53.130;17.982;2024-02-15T02:43:15;101444.59;;;6.09;94.38
77013;BME280;67260;53.130;17.982;2024-02-15T02:45:42;101434.38;;;6.09;94.33
77013;BME280;67260;53.130;17.982;2024-02-15T02:48:09;101439.29;;;6.09;94.50
77013;BME280;67260;53.130;17.982;2024-02-15T02:50:36;101434.65;;;6.09;94.78
77013;BME280;67260;53.130;17.982;2024-02-15T02:53:03;101439.23;;;6.09;94.75
77013;BME280;67260;53.130;17.982;2024-02-15T02:55:30;101434.91;;;6.10;94.84
77013;BME280;67260;53.130;17.982;2024-02-15T03:00:57;101435.32;;;6.13;94.63
77013;BME280;67260;53.130;17.982;2024-02-15T03:03:27;101437.92;;;6.15;94.91
77013;BME280;67260;53.130;17.982;2024-02-15T03:05:54;101435.23;;;6.16;94.72
77013;BME280;67260;53.130;17.982;2024-02-15T03:12:38;101433.81;;;6.17;94.59
77013;BME280;67260;53.130;17.982;2024-02-15T03:15:06;101432.99;;;6.18;94.65
77013;BME280;67260;53.130;17.982;2024-02-15T03:17:40;101433.67;;;6.19;94.63
77013;BME280;67260;53.130;17.982;2024-02-15T03:20:08;101431.41;;;6.20;94.65
77013;BME280;67260;53.130;17.982;2024-02-15T03:22:39;101433.43;;;6.21;94.69
77013;BME280;67260;53.130;17.982;2024-02-15T03:25:06;101435.58;;;6.22;94.63
77013;BME280;67260;53.130;17.982;2024-02-15T03:27:36;101439.31;;;6.23;94.61
77013;BME280;67260;53.130;17.982;2024-02-15T03:30:07;101439.70;;;6.25;94.63
77013;BME280;67260;53.130;17.982;2024-02-15T03:32:33;101442.31;;;6.25;94.64
77013;BME280;67260;53.130;17.982;2024-02-15T03:35:00;101443.17;;;6.27;94.61
77013;BME280;67260;53.130;17.982;2024-02-15T03:37:28;101442.09;;;6.27;94.53
77013;BME280;67260;53.130;17.982;2024-02-15T03:39:55;101442.36;;;6.28;94.64
77013;BME280;67260;53.130;17.982;2024-02-15T03:42:22;101441.92;;;6.29;94.55
77013;BME280;67260;53.130;17.982;2024-02-15T03:44:48;101444.54;;;6.31;94.58
77013;BME280;67260;53.130;17.982;2024-02-15T03:47:15;101442.98;;;6.31;94.45
77013;BME280;67260;53.130;17.982;2024-02-15T03:49:45;101438.64;;;6.31;94.56
77013;BME280;67260;53.130;17.982;2024-02-15T03:52:11;101437.71;;;6.32;94.61
77013;BME280;67260;53.130;17.982;2024-02-15T03:54:38;101440.05;;;6.32;94.77
77013;BME280;67260;53.130;17.982;2024-02-15T03:57:05;101440.59;;;6.33;94.71
77013;BME280;67260;53.130;17.982;2024-02-15T03:59:32;101438.41;;;6.32;94.75
77013;BME280;67260;53.130;17.982;2024-02-15T04:02:01;101438.44;;;6.33;94.83
77013;BME280;67260;53.130;17.982;2024-02-15T04:04:29;101436.16;;;6.33;94.79
77013;BME280;67260;53.130;17.982;2024-02-15T04:06:56;101432.88;;;6.34;94.79
77013;BME280;67260;53.130;17.982;2024-02-15T04:09:24;101438.55;;;6.36;94.77
77013;BME280;67260;53.130;17.982;2024-02-15T04:11:51;101439.38;;;6.36;94.68
77013;BME280;67260;53.130;17.982;2024-02-15T04:14:19;101445.77;;;6.37;94.57
77013;BME280;67260;53.130;17.982;2024-02-15T04:16:46;101448.25;;;6.39;94.56
77013;BME280;67260;53.130;17.982;2024-02-15T04:19:13;101444.52;;;6.39;94.50
77013;BME280;67260;53.130;17.982;2024-02-15T04:21:40;101444.39;;;6.39;94.50
77013;BME280;67260;53.130;17.982;2024-02-15T04:24:07;101448.10;;;6.39;94.47
77013;BME280;67260;53.130;17.982;2024-02-15T04:26:35;101448.22;;;6.39;94.55
77013;BME280;67260;53.130;17.982;2024-02-15T04:29:03;101446.52;;;6.39;94.71
77013;BME280;67260;53.130;17.982;2024-02-15T04:31:30;101447.27;;;6.38;94.84
77013;BME280;67260;53.130;17.982;2024-02-15T04:33:58;101448.98;;;6.39;95.05
77013;BME280;67260;53.130;17.982;2024-02-15T04:36:25;101450.33;;;6.39;95.25
77013;BME280;67260;53.130;17.982;2024-02-15T04:38:52;101449.41;;;6.39;95.08
77013;BME280;67260;53.130;17.982;2024-02-15T04:41:19;101454.52;;;6.39;95.20
77013;BME280;67260;53.130;17.982;2024-02-15T04:43:46;101453.83;;;6.39;95.30
77013;BME280;67260;53.130;17.982;2024-02-15T04:46:13;101455.38;;;6.39;95.37
77013;BME280;67260;53.130;17.982;2024-02-15T04:48:43;101451.45;;;6.40;95.38
77013;BME280;67260;53.130;17.982;2024-02-15T04:51:10;101451.29;;;6.40;95.30
77013;BME280;67260;53.130;17.982;2024-02-15T04:53:37;101448.59;;;6.40;95.38
77013;BME280;67260;53.130;17.982;2024-02-15T04:56:06;101451.39;;;6.41;95.44
77013;BME280;67260;53.130;17.982;2024-02-15T04:58:40;101447.03;;;6.40;95.45
77013;BME280;67260;53.130;17.982;2024-02-15T05:01:16;101452.64;;;6.40;95.58
77013;BME280;67260;53.130;17.982;2024-02-15T05:03:43;101456.34;;;6.40;95.41
77013;BME280;67260;53.130;17.982;2024-02-15T05:06:11;101456.63;;;6.41;95.50
77013;BME280;67260;53.130;17.982;2024-02-15T05:08:40;101455.91;;;6.41;95.26
77013;BME280;67260;53.130;17.982;2024-02-15T05:11:12;101452.35;;;6.42;95.28
77013;BME280;67260;53.130;17.982;2024-02-15T05:13:44;101455.46;;;6.42;95.35
77013;BME280;67260;53.130;17.982;2024-02-15T05:16:13;101450.58;;;6.42;95.39
77013;BME280;67260;53.130;17.982;2024-02-15T05:18:41;101447.40;;;6.42;95.35
77013;BME280;67260;53.130;17.982;2024-02-15T05:21:08;101442.09;;;6.42;95.34
77013;BME280;67260;53.130;17.982;2024-02-15T05:23:36;101439.77;;;6.42;95.39
77013;BME280;67260;53.130;17.982;2024-02-15T05:26:03;101442.95;;;6.42;95.44
77013;BME280;67260;53.130;17.982;2024-02-15T05:28:30;101442.09;;;6.42;95.34
77013;BME280;67260;53.130;17.982;2024-02-15T05:31:21;101446.45;;;6.42;95.37
77013;BME280;67260;53.130;17.982;2024-02-15T05:33:52;101451.73;;;6.42;95.31
77013;BME280;67260;53.130;17.982;2024-02-15T05:36:22;101452.89;;;6.43;95.18
77013;BME280;67260;53.130;17.982;2024-02-15T05:38:52;101454.04;;;6.44;95.12
77013;BME280;67260;53.130;17.982;2024-02-15T05:41:20;101452.78;;;6.44;95.30
77013;BME280;67260;53.130;17.982;2024-02-15T05:43:47;101452.42;;;6.44;95.26
77013;BME280;67260;53.130;17.982;2024-02-15T05:46:22;101453.05;;;6.45;95.39
77013;BME280;67260;53.130;17.982;2024-02-15T05:48:50;101451.66;;;6.45;95.53
77013;BME280;67260;53.130;17.982;2024-02-15T05:51:18;101448.47;;;6.45;95.49
77013;BME280;67260;53.130;17.982;2024-02-15T05:53:46;101449.52;;;6.45;95.56
77013;BME280;67260;53.130;17.982;2024-02-15T05:56:12;101452.13;;;6.45;95.57
77013;BME280;67260;53.130;17.982;2024-02-15T05:58:40;101450.21;;;6.45;95.57
77013;BME280;67260;53.130;17.982;2024-02-15T06:01:10;101454.60;;;6.45;95.66
77013;BME280;67260;53.130;17.982;2024-02-15T06:03:39;101454.90;;;6.46;95.44
77013;BME280;67260;53.130;17.982;2024-02-15T06:06:11;101459.72;;;6.47;95.39
77013;BME280;67260;53.130;17.982;2024-02-15T06:08:47;101459.82;;;6.47;95.27
77013;BME280;67260;53.130;17.982;2024-02-15T06:11:21;101460.59;;;6.49;95.34
77013;BME280;67260;53.130;17.982;2024-02-15T06:13:48;101464.71;;;6.49;95.32
77013;BME280;67260;53.130;17.982;2024-02-15T06:16:34;101463.78;;;6.50;95.27
77013;BME280;67260;53.130;17.982;2024-02-15T06:19:13;101466.79;;;6.51;95.10
77013;BME280;67260;53.130;17.982;2024-02-15T06:21:47;101470.10;;;6.53;95.19
77013;BME280;67260;53.130;17.982;2024-02-15T06:24:14;101472.54;;;6.55;94.97
77013;BME280;67260;53.130;17.982;2024-02-15T06:26:40;101473.92;;;6.57;95.17
77013;BME280;67260;53.130;17.982;2024-02-15T06:29:33;101473.88;;;6.59;95.02
77013;BME280;67260;53.130;17.982;2024-02-15T06:32:18;101477.56;;;6.61;94.93
77013;BME280;67260;53.130;17.982;2024-02-15T06:35:04;101476.61;;;6.63;95.06
77013;BME280;67260;53.130;17.982;2024-02-15T06:37:51;101478.73;;;6.67;94.95
77013;BME280;67260;53.130;17.982;2024-02-15T06:40:44;101480.89;;;6.69;94.96
77013;BME280;67260;53.130;17.982;2024-02-15T06:43:11;101478.91;;;6.72;94.94
77013;BME280;67260;53.130;17.982;2024-02-15T06:46:20;101483.66;;;6.73;95.03
77013;BME280;67260;53.130;17.982;2024-02-15T06:48:47;101485.35;;;6.74;94.89
77013;BME280;67260;53.130;17.982;2024-02-15T06:51:14;101487.65;;;6.75;94.93
77013;BME280;67260;53.130;17.982;2024-02-15T06:53:43;101495.09;;;6.77;94.95
77013;BME280;67260;53.130;17.982;2024-02-15T07:03:07;101506.11;;;6.77;94.78
77013;BME280;67260;53.130;17.982;2024-02-15T07:05:37;101508.49;;;6.78;94.82
77013;BME280;67260;53.130;17.982;2024-02-15T07:08:05;101509.98;;;6.79;94.77
77013;BME280;67260;53.130;17.982;2024-02-15T07:10:33;101511.10;;;6.80;94.66
77013;BME280;67260;53.130;17.982;2024-02-15T07:13:04;101509.42;;;6.81;94.66
77013;BME280;67260;53.130;17.982;2024-02-15T07:15:31;101509.17;;;6.82;94.64
77013;BME280;67260;53.130;17.982;2024-02-15T07:18:01;101510.36;;;6.82;94.63
77013;BME280;67260;53.130;17.982;2024-02-15T07:20:28;101514.88;;;6.84;94.84
77013;BME280;67260;53.130;17.982;2024-02-15T07:23:13;101510.61;;;6.84;94.80
77013;BME280;67260;53.130;17.982;2024-02-15T07:25:41;101516.67;;;6.85;94.70
77013;BME280;67260;53.130;17.982;2024-02-15T07:28:07;101513.00;;;6.87;94.87
77013;BME280;67260;53.130;17.982;2024-02-15T07:30:35;101511.79;;;6.88;94.93
77013;BME280;67260;53.130;17.982;2024-02-15T07:33:03;101507.89;;;6.91;94.96
77013;BME280;67260;53.130;17.982;2024-02-15T07:35:30;101507.73;;;6.94;95.07
77013;BME280;67260;53.130;17.982;2024-02-15T07:37:57;101508.78;;;6.97;94.98
77013;BME280;67260;53.130;17.982;2024-02-15T07:40:28;101508.73;;;7.01;94.87
77013;BME280;67260;53.130;17.982;2024-02-15T07:42:56;101506.35;;;7.03;94.89
77013;BME280;67260;53.130;17.982;2024-02-15T07:45:23;101511.40;;;7.05;95.04
77013;BME280;67260;53.130;17.982;2024-02-15T07:47:50;101512.69;;;7.06;94.95
77013;BME280;67260;53.130;17.982;2024-02-15T07:50:17;101512.42;;;7.09;94.90
77013;BME280;67260;53.130;17.982;2024-02-15T07:52:56;101510.05;;;7.13;95.11
77013;BME280;67260;53.130;17.982;2024-02-15T08:09:49;101515.54;;;7.46;94.42
77013;BME280;67260;53.130;17.982;2024-02-15T08:12:45;101512.95;;;7.49;94.42
77013;BME280;67260;53.130;17.982;2024-02-15T08:15:27;101512.52;;;7.54;94.26
77013;BME280;67260;53.130;17.982;2024-02-15T08:17:54;101511.79;;;7.60;94.14
77013;BME280;67260;53.130;17.982;2024-02-15T08:24:48;101522.36;;;7.62;93.95
77013;BME280;67260;53.130;17.982;2024-02-15T08:27:22;101522.95;;;7.61;94.04
77013;BME280;67260;53.130;17.982;2024-02-15T08:29:59;101523.59;;;7.62;94.08
77013;BME280;67260;53.130;17.982;2024-02-15T08:32:45;101525.77;;;7.63;93.85
77013;BME280;67260;53.130;17.982;2024-02-15T08:35:28;101527.91;;;7.62;94.03
77013;BME280;67260;53.130;17.982;2024-02-15T08:38:01;101525.59;;;7.64;93.94
77013;BME280;67260;53.130;17.982;2024-02-15T08:40:43;101531.44;;;7.69;94.08
77013;BME280;67260;53.130;17.982;2024-02-15T08:43:26;101531.10;;;7.72;93.98
77013;BME280;67260;53.130;17.982;2024-02-15T08:48:42;101525.21;;;7.75;93.94
77013;BME280;67260;53.130;17.982;2024-02-15T08:51:13;101532.02;;;7.74;93.94
77013;BME280;67260;53.130;17.982;2024-02-15T08:53:59;101532.48;;;7.74;93.96
77013;BME280;67260;53.130;17.982;2024-02-15T08:56:51;101532.72;;;7.75;94.03
77013;BME280;67260;53.130;17.982;2024-02-15T08:59:45;101534.01;;;7.76;93.93
77013;BME280;67260;53.130;17.982;2024-02-15T09:02:13;101534.42;;;7.78;93.93
77013;BME280;67260;53.130;17.982;2024-02-15T09:05:14;101530.83;;;7.79;93.96
77013;BME280;67260;53.130;17.982;2024-02-15T09:08:38;101529.10;;;7.80;94.04
77013;BME280;67260;53.130;17.982;2024-02-15T09:11:29;101522.88;;;7.83;93.94
77013;BME280;67260;53.130;17.982;2024-02-15T09:14:04;101529.11;;;7.95;93.91
77013;BME280;67260;53.130;17.982;2024-02-15T09:16:37;101532.66;;;8.08;93.68
77013;BME280;67260;53.130;17.982;2024-02-15T09:19:06;101531.13;;;8.25;93.34
77013;BME280;67260;53.130;17.982;2024-02-15T09:21:33;101532.76;;;8.37;93.15
77013;BME280;67260;53.130;17.982;2024-02-15T09:24:14;101532.05;;;8.42;93.01
77013;BME280;67260;53.130;17.982;2024-02-15T09:26:46;101534.89;;;8.42;92.86
77013;BME280;67260;53.130;17.982;2024-02-15T09:29:13;101533.60;;;8.42;92.91
77013;BME280;67260;53.130;17.982;2024-02-15T09:31:41;101531.75;;;8.48;93.10
77013;BME280;67260;53.130;17.982;2024-02-15T09:34:38;101531.83;;;8.47;92.86
77013;BME280;67260;53.130;17.982;2024-02-15T09:37:08;101534.13;;;8.52;92.97
77013;BME280;67260;53.130;17.982;2024-02-15T09:43:00;101524.34;;;8.83;91.84
77013;BME280;67260;53.130;17.982;2024-02-15T09:45:43;101521.41;;;8.92;91.81
77013;BME280;67260;53.130;17.982;2024-02-15T09:48:25;101522.34;;;8.99;91.50
77013;BME280;67260;53.130;17.982;2024-02-15T09:53:58;101520.18;;;9.10;91.02
77013;BME280;67260;53.130;17.982;2024-02-15T09:56:33;101524.94;;;9.16;91.14
77013;BME280;67260;53.130;17.982;2024-02-15T09:59:01;101526.65;;;9.18;91.26
77013;BME280;67260;53.130;17.982;2024-02-15T10:01:31;101530.70;;;9.24;91.32
77013;BME280;67260;53.130;17.982;2024-02-15T10:03:58;101530.31;;;9.28;90.71
77013;BME280;67260;53.130;17.982;2024-02-15T10:06:40;101532.08;;;9.33;90.58
77013;BME280;67260;53.130;17.982;2024-02-15T10:09:28;101536.23;;;9.39;90.72
77013;BME280;67260;53.130;17.982;2024-02-15T10:12:14;101538.59;;;9.49;90.55
77013;BME280;67260;53.130;17.982;2024-02-15T10:15:03;101542.70;;;9.50;90.38
77013;BME280;67260;53.130;17.982;2024-02-15T10:18:50;101538.30;;;9.45;91.08
77013;BME280;67260;53.130;17.982;2024-02-15T10:21:31;101540.79;;;9.41;91.05
77013;BME280;67260;53.130;17.982;2024-02-15T10:24:04;101534.77;;;9.31;91.12
77013;BME280;67260;53.130;17.982;2024-02-15T10:27:09;101532.38;;;9.19;91.38
77013;BME280;67260;53.130;17.982;2024-02-15T10:29:53;101529.36;;;9.15;91.72
77013;BME280;67260;53.130;17.982;2024-02-15T10:32:45;101525.30;;;9.18;91.68
77013;BME280;67260;53.130;17.982;2024-02-15T10:45:05;101511.36;;;9.54;90.81
77013;BME280;67260;53.130;17.982;2024-02-15T10:48:02;101511.88;;;9.73;90.39
77013;BME280;67260;53.130;17.982;2024-02-15T10:57:54;101510.31;;;9.98;89.79
77013;BME280;67260;53.130;17.982;2024-02-15T11:00:51;101508.68;;;9.95;89.32
77013;BME280;67260;53.130;17.982;2024-02-15T11:06:59;101506.17;;;9.85;89.49
77013;BME280;67260;53.130;17.982;2024-02-15T11:09:59;101506.47;;;9.86;90.15
77013;BME280;67260;53.130;17.982;2024-02-15T11:12:42;101507.42;;;9.83;89.80
77013;BME280;67260;53.130;17.982;2024-02-15T11:15:44;101498.94;;;9.79;89.56
77013;BME280;67260;53.130;17.982;2024-02-15T11:18:48;101496.54;;;9.77;89.64
77013;BME280;67260;53.130;17.982;2024-02-15T11:24:25;101494.24;;;9.81;89.73
77013;BME280;67260;53.130;17.982;2024-02-15T11:26:58;101495.78;;;9.86;89.59
77013;BME280;67260;53.130;17.982;2024-02-15T11:29:53;101496.14;;;9.91;89.05
77013;BME280;67260;53.130;17.982;2024-02-15T11:32:44;101495.06;;;9.97;89.01
77013;BME280;67260;53.130;17.982;2024-02-15T11:35:16;101491.64;;;10.03;88.96
77013;BME280;67260;53.130;17.982;2024-02-15T11:38:04;101490.81;;;10.11;88.89
77013;BME280;67260;53.130;17.982;2024-02-15T11:41:10;101490.88;;;10.17;88.71
77013;BME280;67260;53.130;17.982;2024-02-15T11:49:42;101482.99;;;10.24;87.70
77013;BME280;67260;53.130;17.982;2024-02-15T11:52:15;101486.20;;;10.29;88.00
77013;BME280;67260;53.130;17.982;2024-02-15T11:54:48;101484.45;;;10.29;87.72
77013;BME280;67260;53.130;17.982;2024-02-15T11:57:15;101483.70;;;10.25;87.67
77013;BME280;67260;53.130;17.982;2024-02-15T11:59:52;101486.29;;;10.23;88.17
77013;BME280;67260;53.130;17.982;2024-02-15T12:02:38;101484.42;;;10.21;88.35
77013;BME280;67260;53.130;17.982;2024-02-15T12:06:07;101485.94;;;10.13;88.20
77013;BME280;67260;53.130;17.982;2024-02-15T12:09:23;101490.91;;;10.06;88.62
77013;BME280;67260;53.130;17.982;2024-02-15T12:12:52;101489.92;;;10.06;89.02
77013;BME280;67260;53.130;17.982;2024-02-15T12:16:22;101488.02;;;10.04;88.96
77013;BME280;67260;53.130;17.982;2024-02-15T12:19:19;101491.60;;;10.06;89.08
77013;BME280;67260;53.130;17.982;2024-02-15T12:21:48;101488.75;;;10.06;89.03
77013;BME280;67260;53.130;17.982;2024-02-15T12:24:15;101487.60;;;10.06;88.96
77013;BME280;67260;53.130;17.982;2024-02-15T12:26:43;101487.09;;;10.11;88.99
77013;BME280;67260;53.130;17.982;2024-02-15T12:29:10;101485.07;;;10.16;88.34
77013;BME280;67260;53.130;17.982;2024-02-15T12:35:29;101481.15;;;10.27;88.21
77013;BME280;67260;53.130;17.982;2024-02-15T12:38:03;101482.84;;;10.25;88.19
77013;BME280;67260;53.130;17.982;2024-02-15T13:11:39;101475.98;;;10.22;88.15
77013;BME280;67260;53.130;17.982;2024-02-15T13:14:57;101479.83;;;10.17;88.05
77013;BME280;67260;53.130;17.982;2024-02-15T13:33:06;101465.84;;;10.00;88.72
77013;BME280;67260;53.130;17.982;2024-02-15T13:39:55;101467.19;;;10.01;88.60
77013;BME280;67260;53.130;17.982;2024-02-15T13:42:27;101467.63;;;10.00;88.69
77013;BME280;67260;53.130;17.982;2024-02-15T13:45:40;101467.45;;;10.01;88.84
77013;BME280;67260;53.130;17.982;2024-02-15T13:49:25;101466.77;;;10.03;88.55
77013;BME280;67260;53.130;17.982;2024-02-15T13:52:02;101460.84;;;10.02;88.32
77013;BME280;67260;53.130;17.982;2024-02-15T13:55:14;101463.52;;;10.01;88.52
77013;BME280;67260;53.130;17.982;2024-02-15T13:58:00;101461.42;;;10.00;88.49
77013;BME280;67260;53.130;17.982;2024-02-15T14:00:28;101460.39;;;9.99;88.48
77013;BME280;67260;53.130;17.982;2024-02-15T14:03:36;101457.46;;;9.98;88.51
77013;BME280;67260;53.130;17.982;2024-02-15T14:09:27;101455.64;;;9.98;88.55
77013;BME280;67260;53.130;17.982;2024-02-15T14:19:47;101466.60;;;9.91;88.62
77013;BME280;67260;53.130;17.982;2024-02-15T14:29:35;101467.85;;;9.83;88.75
77013;BME280;67260;53.130;17.982;2024-02-15T14:33:08;101468.80;;;9.81;88.99
77013;BME280;67260;53.130;17.982;2024-02-15T14:42:11;101465.73;;;9.77;89.00
77013;BME280;67260;53.130;17.982;2024-02-15T14:45:22;101465.98;;;9.78;89.23
77013;BME280;67260;53.130;17.982;2024-02-15T14:48:01;101468.66;;;9.79;89.29
77013;BME280;67260;53.130;17.982;2024-02-15T14:57:27;101472.85;;;9.78;89.14
77013;BME280;67260;53.130;17.982;2024-02-15T15:00:08;101472.40;;;9.76;89.33
77013;BME280;67260;53.130;17.982;2024-02-15T15:03:07;101471.56;;;9.74;89.41
77013;BME280;67260;53.130;17.982;2024-02-15T15:09:25;101481.88;;;9.71;89.69
77013;BME280;67260;53.130;17.982;2024-02-15T15:26:24;101496.88;;;9.67;89.95
77013;BME280;67260;53.130;17.982;2024-02-15T15:29:20;101496.27;;;9.66;90.01
77013;BME280;67260;53.130;17.982;2024-02-15T15:46:58;101492.70;;;9.57;90.60
77013;BME280;67260;53.130;17.982;2024-02-15T15:49:38;101492.95;;;9.55;90.69
77013;BME280;67260;53.130;17.982;2024-02-15T15:52:06;101494.88;;;9.56;90.71
77013;BME280;67260;53.130;17.982;2024-02-15T15:55:07;101495.08;;;9.55;90.69
77013;BME280;67260;53.130;17.982;2024-02-15T16:15:07;101505.46;;;9.47;91.21
77013;BME280;67260;53.130;17.982;2024-02-15T16:42:19;101527.10;;;9.37;92.14
77013;BME280;67260;53.130;17.982;2024-02-15T16:45:01;101528.67;;;9.34;92.28
77013;BME280;67260;53.130;17.982;2024-02-15T16:47:34;101527.63;;;9.33;92.67
77013;BME280;67260;53.130;17.982;2024-02-15T16:50:03;101526.95;;;9.31;92.76
77013;BME280;67260;53.130;17.982;2024-02-15T16:52:35;101529.61;;;9.29;93.10
77013;BME280;67260;53.130;17.982;2024-02-15T16:55:05;101532.67;;;9.28;92.98
77013;BME280;67260;53.130;17.982;2024-02-15T16:58:04;101534.34;;;9.27;93.00
77013;BME280;67260;53.130;17.982;2024-02-15T17:00:39;101534.09;;;9.25;93.19
77013;BME280;67260;53.130;17.982;2024-02-15T17:06:51;101535.02;;;9.21;93.26
77013;BME280;67260;53.130;17.982;2024-02-15T17:09:24;101533.23;;;9.20;93.39
77013;BME280;67260;53.130;17.982;2024-02-15T17:11:56;101531.02;;;9.19;93.31
77013;BME280;67260;53.130;17.982;2024-02-15T17:14:27;101530.08;;;9.18;93.34
77013;BME280;67260;53.130;17.982;2024-02-15T17:23:26;101534.66;;;9.15;93.67
77013;BME280;67260;53.130;17.982;2024-02-15T17:26:00;101537.88;;;9.14;93.75
77013;BME280;67260;53.130;17.982;2024-02-15T17:28:33;101533.05;;;9.13;93.88
77013;BME280;67260;53.130;17.982;2024-02-15T17:31:00;101537.16;;;9.13;94.03
77013;BME280;67260;53.130;17.982;2024-02-15T17:43:46;101538.81;;;9.09;94.53
77013;BME280;67260;53.130;17.982;2024-02-15T17:50:10;101532.94;;;9.07;94.86
77013;BME280;67260;53.130;17.982;2024-02-15T17:56:00;101543.09;;;9.05;95.11